createdAt,value
2023-01-27T00:00:53.248Z,12.68
2023-01-27T00:03:21.326Z,13.38
2023-01-27T00:05:49.134Z,8.50
2023-01-27T00:08:16.326Z,14.15
2023-01-27T00:10:43.617Z,11.15
2023-01-27T00:13:28.176Z,11.13
2023-01-27T00:15:56.119Z,12.70
2023-01-27T00:18:23.908Z,11.07
2023-01-27T00:21:09.538Z,9.32
2023-01-27T00:23:55.264Z,15.95
2023-01-27T00:26:22.278Z,12.63
2023-01-27T00:28:49.083Z,17.55
2023-01-27T00:31:36.110Z,13.93
2023-01-27T00:34:09.309Z,11.15
2023-01-27T00:36:40.912Z,15.60
2023-01-27T00:39:09.807Z,8.48
2023-01-27T00:41:36.705Z,12.63
2023-01-27T00:44:05.665Z,13.30
2023-01-27T00:46:33.164Z,13.50
2023-01-27T00:49:00.110Z,11.43
2023-01-27T00:51:26.978Z,9.27
2023-01-27T00:53:53.824Z,15.55
2023-01-27T00:56:20.672Z,12.75
2023-01-27T00:58:47.732Z,10.85
2023-01-27T01:01:17.417Z,9.88
2023-01-27T01:03:45.010Z,10.35
2023-01-27T01:06:14.342Z,13.77
2023-01-27T01:08:41.858Z,14.68
2023-01-27T01:11:11.507Z,8.07
2023-01-27T01:13:38.266Z,12.02
2023-01-27T01:16:10.897Z,12.20
2023-01-27T01:18:39.100Z,8.38
2023-01-27T01:21:07.100Z,9.30
2023-01-27T01:23:37.924Z,21.88
2023-01-27T01:26:05.170Z,9.25
2023-01-27T01:28:32.290Z,12.13
2023-01-27T01:31:25.459Z,10.57
2023-01-27T01:33:52.249Z,11.02
2023-01-27T01:36:20.774Z,13.40
2023-01-27T01:38:48.347Z,5.85
2023-01-27T01:41:18.993Z,14.68
2023-01-27T01:43:45.962Z,12.43
2023-01-27T01:46:13.325Z,17.88
2023-01-27T01:48:41.342Z,11.88
2023-01-27T01:51:13.909Z,8.93
2023-01-27T01:53:52.592Z,6.55
2023-01-27T01:56:25.274Z,13.95
2023-01-27T01:58:54.659Z,13.77
2023-01-27T02:01:21.978Z,14.20
2023-01-27T02:03:53.502Z,10.27
2023-01-27T02:06:21.616Z,11.93
2023-01-27T02:08:50.683Z,11.15
2023-01-27T02:11:17.934Z,10.50
2023-01-27T02:13:45.305Z,16.73
2023-01-27T02:16:12.848Z,9.60
2023-01-27T02:18:43.522Z,14.25
2023-01-27T02:21:10.668Z,11.70
2023-01-27T02:23:55.622Z,14.65
2023-01-27T02:26:33.513Z,11.68
2023-01-27T02:29:11.321Z,19.67
2023-01-27T02:31:38.345Z,19.05
2023-01-27T02:34:09.207Z,11.88
2023-01-27T02:36:43.865Z,15.23
2023-01-27T02:39:15.053Z,15.02
2023-01-27T02:41:48.143Z,13.43
2023-01-27T02:44:15.326Z,21.17
2023-01-27T02:46:42.369Z,21.17
2023-01-27T02:49:09.447Z,11.93
2023-01-27T02:51:36.471Z,12.70
2023-01-27T02:54:03.684Z,19.77
2023-01-27T02:56:30.670Z,20.20
2023-01-27T02:58:57.698Z,18.88
2023-01-27T03:01:25.433Z,18.63
2023-01-27T03:03:52.872Z,18.70
2023-01-27T03:06:20.688Z,16.33
2023-01-27T03:08:47.786Z,16.63
2023-01-27T03:11:15.032Z,17.73
2023-01-27T03:13:42.073Z,20.23
2023-01-27T03:16:29.526Z,14.02
2023-01-27T03:18:56.641Z,20.58
2023-01-27T03:21:23.666Z,14.05
2023-01-27T03:23:50.553Z,15.65
2023-01-27T03:26:17.411Z,16.00
2023-01-27T03:29:04.185Z,19.77
2023-01-27T03:31:34.026Z,18.15
2023-01-27T03:34:07.138Z,17.20
2023-01-27T03:36:52.666Z,13.73
2023-01-27T03:39:38.117Z,16.85
2023-01-27T03:42:23.812Z,18.40
2023-01-27T03:45:09.442Z,24.25
2023-01-27T03:47:36.411Z,19.70
2023-01-27T03:50:03.443Z,21.83
2023-01-27T03:52:30.309Z,16.23
2023-01-27T03:54:57.116Z,14.98
2023-01-27T03:57:24.053Z,13.60
2023-01-27T03:59:50.966Z,19.98
2023-01-27T04:02:36.353Z,17.45
2023-01-27T04:05:21.702Z,23.75
2023-01-27T04:07:48.787Z,23.65
2023-01-27T04:10:15.999Z,19.75
2023-01-27T04:12:42.885Z,28.02
2023-01-27T04:15:09.965Z,15.82
2023-01-27T04:17:38.930Z,16.90
2023-01-27T04:20:06.701Z,15.23
2023-01-27T04:22:33.582Z,15.20
2023-01-27T04:25:00.598Z,14.63
2023-01-27T04:27:27.898Z,21.30
2023-01-27T04:29:54.785Z,17.60
2023-01-27T04:32:21.811Z,20.67
2023-01-27T04:34:48.976Z,13.07
2023-01-27T04:37:15.877Z,15.77
2023-01-27T04:39:45.373Z,22.50
2023-01-27T04:42:12.264Z,12.50
2023-01-27T04:44:39.079Z,15.32
2023-01-27T04:47:05.917Z,11.75
2023-01-27T04:49:32.931Z,13.88
2023-01-27T04:51:59.737Z,22.17
2023-01-27T04:54:26.648Z,12.43
2023-01-27T04:56:59.858Z,11.05
2023-01-27T04:59:27.250Z,10.75
2023-01-27T05:01:54.441Z,15.40
2023-01-27T05:04:21.691Z,12.02
2023-01-27T05:06:48.714Z,13.43
2023-01-27T05:09:15.538Z,18.75
2023-01-27T05:11:42.398Z,14.73
2023-01-27T05:14:09.312Z,15.35
2023-01-27T05:16:38.642Z,13.77
2023-01-27T05:19:05.725Z,12.90
2023-01-27T05:21:32.729Z,13.73
2023-01-27T05:23:59.612Z,10.43
2023-01-27T05:26:28.318Z,13.48
2023-01-27T05:28:58.515Z,21.92
2023-01-27T05:31:31.707Z,15.75
2023-01-27T05:34:00.713Z,14.25
2023-01-27T05:36:28.727Z,7.75
2023-01-27T05:38:56.661Z,9.82
2023-01-27T05:41:23.843Z,11.23
2023-01-27T05:43:56.055Z,18.38
2023-01-27T05:46:25.916Z,13.15
2023-01-27T05:48:55.383Z,8.45
2023-01-27T05:51:24.827Z,8.15
2023-01-27T05:53:52.501Z,13.10
2023-01-27T05:56:19.970Z,9.23
2023-01-27T05:58:47.419Z,8.15
2023-01-27T06:01:14.279Z,13.57
2023-01-27T06:03:42.203Z,15.20
2023-01-27T06:06:10.812Z,11.45
2023-01-27T06:08:38.734Z,9.73
2023-01-27T06:11:06.634Z,12.68
2023-01-27T06:13:38.973Z,16.77
2023-01-27T06:16:08.659Z,14.93
2023-01-27T06:18:36.552Z,7.03
2023-01-27T06:21:05.345Z,11.10
2023-01-27T06:23:32.470Z,10.25
2023-01-27T06:26:19.090Z,12.48
2023-01-27T06:28:46.423Z,8.85
2023-01-27T06:31:17.355Z,14.80
2023-01-27T06:33:44.809Z,8.98
2023-01-27T06:36:16.866Z,9.10
2023-01-27T06:38:44.552Z,22.85
2023-01-27T06:41:12.195Z,9.60
2023-01-27T06:43:39.029Z,12.88
2023-01-27T06:46:06.587Z,13.95
2023-01-27T06:48:34.152Z,12.82
2023-01-27T06:51:01.422Z,12.82
2023-01-27T06:53:28.886Z,13.90
2023-01-27T06:56:00.587Z,16.33
2023-01-27T06:58:28.011Z,14.48
2023-01-27T07:00:55.228Z,16.25
2023-01-27T07:03:22.857Z,11.40
2023-01-27T07:05:50.071Z,19.52
2023-01-27T07:08:17.350Z,21.05
2023-01-27T07:10:44.419Z,24.55
2023-01-27T07:13:13.466Z,20.95
2023-01-27T07:15:40.639Z,25.20
2023-01-27T07:18:07.529Z,23.10
2023-01-27T07:20:34.426Z,21.60
2023-01-27T07:23:03.853Z,16.17
2023-01-27T07:25:32.064Z,17.63
2023-01-27T07:28:00.403Z,21.92
2023-01-27T07:30:28.638Z,21.35
2023-01-27T07:32:55.648Z,17.40
2023-01-27T07:35:23.419Z,15.07
2023-01-27T07:37:50.515Z,15.15
2023-01-27T07:40:18.581Z,19.23
2023-01-27T07:42:45.620Z,20.15
2023-01-27T07:45:12.864Z,20.58
2023-01-27T07:47:40.113Z,27.25
2023-01-27T07:50:07.906Z,21.67
2023-01-27T07:52:34.739Z,20.42
2023-01-27T07:55:01.663Z,18.83
2023-01-27T07:57:28.602Z,22.80
2023-01-27T07:59:56.797Z,22.85
2023-01-27T08:02:24.246Z,23.80
2023-01-27T08:04:53.627Z,19.83
2023-01-27T08:07:21.578Z,19.35
2023-01-27T08:09:48.572Z,19.25
2023-01-27T08:12:15.646Z,18.95
2023-01-27T08:14:42.635Z,17.15
2023-01-27T08:17:09.630Z,18.15
2023-01-27T08:19:36.743Z,18.90
2023-01-27T08:22:03.678Z,19.70
2023-01-27T08:24:30.797Z,17.30
2023-01-27T08:26:57.919Z,21.60
2023-01-27T08:29:25.231Z,18.08
2023-01-27T08:31:52.157Z,16.92
2023-01-27T08:34:19.370Z,17.48
2023-01-27T08:36:46.379Z,18.50
2023-01-27T08:39:13.697Z,19.33
2023-01-27T08:41:40.846Z,21.95
2023-01-27T08:44:07.860Z,25.05
2023-01-27T08:46:34.773Z,22.77
2023-01-27T08:49:01.778Z,22.10
2023-01-27T08:51:28.934Z,25.45
2023-01-27T08:53:56.251Z,24.55
2023-01-27T08:56:23.357Z,24.33
2023-01-27T08:58:52.364Z,22.17
2023-01-27T09:01:20.651Z,23.75
2023-01-27T09:03:47.989Z,25.67
2023-01-27T09:06:17.133Z,26.17
2023-01-27T09:08:44.922Z,21.52
2023-01-27T09:11:15.082Z,28.83
2023-01-27T09:13:42.367Z,27.10
2023-01-27T09:16:09.983Z,27.42
2023-01-27T09:18:36.944Z,24.05
2023-01-27T09:21:05.641Z,32.63
2023-01-27T09:23:35.295Z,28.73
2023-01-27T09:26:02.127Z,29.27
2023-01-27T09:28:29.017Z,24.55
2023-01-27T09:30:59.822Z,30.02
2023-01-27T09:33:27.425Z,29.48
2023-01-27T09:36:07.926Z,29.20
2023-01-27T09:38:44.105Z,29.63
2023-01-27T09:41:26.273Z,30.85
2023-01-27T09:43:59.090Z,32.13
2023-01-27T09:46:50.979Z,31.90
2023-01-27T09:49:38.705Z,30.20
2023-01-27T09:52:47.826Z,30.67
2023-01-27T09:55:24.322Z,28.75
2023-01-27T09:58:18.569Z,29.10
2023-01-27T10:01:30.243Z,29.88
2023-01-27T10:04:34.451Z,26.25
2023-01-27T10:07:09.969Z,27.80
2023-01-27T10:09:57.190Z,23.80
2023-01-27T10:12:58.243Z,27.80
2023-01-27T10:15:46.507Z,26.15
2023-01-27T10:18:43.276Z,27.77
2023-01-27T10:21:46.100Z,21.27
2023-01-27T10:24:40.701Z,23.00
2023-01-27T10:27:18.151Z,27.85
2023-01-27T10:29:47.049Z,23.60
2023-01-27T10:32:33.751Z,27.60
2023-01-27T10:35:06.543Z,26.48
2023-01-27T10:38:09.957Z,25.00
2023-01-27T10:40:51.695Z,23.63
2023-01-27T10:43:56.929Z,22.17
2023-01-27T10:46:29.753Z,25.30
2023-01-27T10:49:24.978Z,29.63
2023-01-27T10:52:01.820Z,24.83
2023-01-27T10:54:54.032Z,21.75
2023-01-27T10:57:47.496Z,23.80
2023-01-27T11:00:57.887Z,32.78
2023-01-27T11:03:34.457Z,22.45
2023-01-27T11:06:15.880Z,19.65
2023-01-27T11:08:47.539Z,18.55
2023-01-27T11:11:36.100Z,20.35
2023-01-27T11:14:12.665Z,22.50
2023-01-27T11:16:43.050Z,25.33
2023-01-27T11:19:28.151Z,21.42
2023-01-27T11:22:07.249Z,18.10
2023-01-27T11:24:45.229Z,17.08
2023-01-27T11:27:23.845Z,20.33
2023-01-27T11:30:01.281Z,20.20
2023-01-27T11:32:38.824Z,19.58
2023-01-27T11:35:10.850Z,18.33
2023-01-27T11:37:44.156Z,16.42
2023-01-27T11:40:30.999Z,17.92
2023-01-27T11:42:59.957Z,15.13
2023-01-27T11:45:30.494Z,18.15
2023-01-27T11:48:03.391Z,26.25
2023-01-27T11:50:33.623Z,15.95
2023-01-27T11:53:30.241Z,14.98
2023-01-27T11:56:01.954Z,19.25
2023-01-27T11:58:39.755Z,11.93
2023-01-27T12:01:13.498Z,11.30
2023-01-27T12:04:07.402Z,12.93
2023-01-27T12:06:52.959Z,13.43
2023-01-27T12:09:41.093Z,12.65
2023-01-27T12:12:14.455Z,8.68
2023-01-27T12:14:56.231Z,9.48
2023-01-27T12:17:26.205Z,10.70
2023-01-27T12:19:57.270Z,10.20
2023-01-27T12:22:32.637Z,9.48
2023-01-27T12:25:03.625Z,8.63
2023-01-27T12:27:36.891Z,8.32
2023-01-27T12:30:08.355Z,8.23
2023-01-27T12:32:42.175Z,6.65
2023-01-27T12:35:36.429Z,7.80
2023-01-27T12:38:36.638Z,8.23
2023-01-27T12:41:09.845Z,6.07
2023-01-27T12:43:55.723Z,6.70
2023-01-27T12:46:26.106Z,6.25
2023-01-27T12:49:02.851Z,7.43
2023-01-27T12:51:55.567Z,6.55
2023-01-27T12:54:24.531Z,14.35
2023-01-27T12:56:53.499Z,9.90
2023-01-27T12:59:23.655Z,6.97
2023-01-27T13:02:19.496Z,9.60
2023-01-27T13:04:59.058Z,8.25
2023-01-27T13:07:48.398Z,8.90
2023-01-27T13:10:22.874Z,9.15
2023-01-27T13:12:59.058Z,11.32
2023-01-27T13:15:29.412Z,7.13
2023-01-27T13:17:57.992Z,8.52
2023-01-27T13:20:30.491Z,8.35
2023-01-27T13:23:02.396Z,12.73
2023-01-27T13:25:47.206Z,7.70
2023-01-27T13:28:22.929Z,10.82
2023-01-27T13:30:54.339Z,8.27
2023-01-27T13:33:45.294Z,7.82
2023-01-27T13:36:17.428Z,7.00
2023-01-27T13:39:00.595Z,8.50
2023-01-27T13:41:56.257Z,7.63
2023-01-27T13:44:43.768Z,12.95
2023-01-27T13:47:23.752Z,13.15
2023-01-27T13:49:58.904Z,11.35
2023-01-27T13:52:26.236Z,8.82
2023-01-27T13:54:53.517Z,12.20
2023-01-27T13:57:23.460Z,8.32
2023-01-27T13:59:56.185Z,6.70
2023-01-27T14:02:38.369Z,15.50
2023-01-27T14:05:33.349Z,9.05
2023-01-27T14:08:13.306Z,12.50
2023-01-27T14:11:07.869Z,7.15
2023-01-27T14:13:43.823Z,8.95
2023-01-27T14:16:23.069Z,8.00
2023-01-27T14:18:57.362Z,8.35
2023-01-27T14:21:40.388Z,8.70
2023-01-27T14:24:33.114Z,9.30
2023-01-27T14:27:22.506Z,7.38
2023-01-27T14:30:13.770Z,8.10
2023-01-27T14:33:11.143Z,8.40
2023-01-27T14:36:09.180Z,6.70
2023-01-27T14:39:02.510Z,6.78
2023-01-27T14:41:39.296Z,5.75
2023-01-27T14:45:10.770Z,12.75
2023-01-27T14:47:53.102Z,9.63
2023-01-27T14:50:25.808Z,10.45
2023-01-27T14:53:05.263Z,19.52
2023-01-27T14:56:05.526Z,9.77
2023-01-27T14:58:39.841Z,10.05
2023-01-27T15:01:25.132Z,11.48
2023-01-27T15:04:26.721Z,8.93
2023-01-27T15:07:02.911Z,10.27
2023-01-27T15:09:52.318Z,9.52
2023-01-27T15:12:39.188Z,7.50
2023-01-27T15:15:25.020Z,9.57
2023-01-27T15:18:04.068Z,8.63
2023-01-27T15:20:48.572Z,6.63
2023-01-27T15:23:36.066Z,15.23
2023-01-27T15:26:07.132Z,6.28
2023-01-27T15:28:38.590Z,7.45
2023-01-27T15:31:14.970Z,5.38
2023-01-27T15:33:46.331Z,15.93
2023-01-27T15:36:18.908Z,21.27
2023-01-27T15:39:10.361Z,16.13
2023-01-27T15:41:58.170Z,11.80
2023-01-27T15:44:25.102Z,13.50
2023-01-27T15:47:02.591Z,10.00
2023-01-27T15:49:36.167Z,10.55
2023-01-27T15:52:21.592Z,8.32
2023-01-27T15:54:51.533Z,9.80
2023-01-27T15:57:38.040Z,9.18
2023-01-27T16:00:08.914Z,9.88
2023-01-27T16:02:47.103Z,6.57
2023-01-27T16:05:38.681Z,5.85
2023-01-27T16:08:13.011Z,9.65
2023-01-27T16:10:40.286Z,7.25
2023-01-27T16:13:28.103Z,9.10
2023-01-27T16:16:20.037Z,7.32
2023-01-27T16:18:53.090Z,6.75
2023-01-27T16:21:41.775Z,16.13
2023-01-27T16:24:23.094Z,9.02
2023-01-27T16:26:55.757Z,8.25
2023-01-27T16:29:40.094Z,11.07
2023-01-27T16:32:17.177Z,7.10
2023-01-27T16:34:48.455Z,8.35
2023-01-27T16:37:22.145Z,7.80
2023-01-27T16:40:06.766Z,7.97
2023-01-27T16:42:44.485Z,7.57
2023-01-27T16:45:23.095Z,15.18
2023-01-27T16:48:04.337Z,11.07
2023-01-27T16:50:37.759Z,8.57
2023-01-27T16:53:08.451Z,15.52
2023-01-27T16:55:35.453Z,11.10
2023-01-27T16:58:03.150Z,9.60
2023-01-27T17:00:35.757Z,9.43
2023-01-27T17:03:14.989Z,9.95
2023-01-27T17:05:43.166Z,12.10
2023-01-27T17:08:15.924Z,12.00
2023-01-27T17:10:51.217Z,11.05
2023-01-27T17:13:48.452Z,12.40
2023-01-27T17:16:37.738Z,13.13
2023-01-27T17:19:18.851Z,12.18
2023-01-27T17:21:53.377Z,12.50
2023-01-27T17:24:30.584Z,13.15
2023-01-27T17:27:18.435Z,13.15
2023-01-27T17:29:48.386Z,19.60
2023-01-27T17:32:21.505Z,10.65
2023-01-27T17:34:54.828Z,9.18
2023-01-27T17:37:23.659Z,9.38
2023-01-27T17:39:56.058Z,11.23
2023-01-27T17:42:25.921Z,11.50
2023-01-27T17:44:52.763Z,11.48
2023-01-27T17:47:21.755Z,11.90
2023-01-27T17:49:50.711Z,11.23
2023-01-27T17:52:24.686Z,11.45
2023-01-27T17:54:52.366Z,11.63
2023-01-27T17:57:26.825Z,16.65
2023-01-27T18:00:04.230Z,13.30
2023-01-27T18:02:36.858Z,11.75
2023-01-27T18:05:09.996Z,13.63
2023-01-27T18:07:37.038Z,16.90
2023-01-27T18:10:27.135Z,17.08
2023-01-27T18:12:55.101Z,14.98
2023-01-27T18:16:00.334Z,14.85
2023-01-27T18:18:32.861Z,15.90
2023-01-27T18:20:59.949Z,18.45
2023-01-27T18:23:52.718Z,20.35
2023-01-27T18:26:30.062Z,20.45
2023-01-27T18:29:01.647Z,18.65
2023-01-27T18:31:35.292Z,19.33
2023-01-27T18:34:05.492Z,20.13
2023-01-27T18:36:39.025Z,19.50
2023-01-27T18:39:41.525Z,22.80
2023-01-27T18:42:18.747Z,22.58
2023-01-27T18:44:48.351Z,27.77
2023-01-27T18:47:18.196Z,22.27
2023-01-27T18:49:51.906Z,21.70
2023-01-27T18:52:19.315Z,22.27
2023-01-27T18:54:46.489Z,19.60
2023-01-27T18:57:13.408Z,24.58
2023-01-27T18:59:40.294Z,20.15
2023-01-27T19:02:15.929Z,19.40
2023-01-27T19:04:45.731Z,17.63
2023-01-27T19:07:14.054Z,18.88
2023-01-27T19:09:41.049Z,22.48
2023-01-27T19:12:08.121Z,18.63
2023-01-27T19:14:36.882Z,18.63
2023-01-27T19:17:10.620Z,19.45
2023-01-27T19:19:37.535Z,18.38
2023-01-27T19:22:04.418Z,20.00
2023-01-27T19:24:33.105Z,62.03
2023-01-27T19:27:00.099Z,21.52
2023-01-27T19:29:26.913Z,19.88
2023-01-27T19:31:53.862Z,17.88
2023-01-27T19:34:20.906Z,21.50
2023-01-27T19:36:47.918Z,16.27
2023-01-27T19:39:22.750Z,18.35
2023-01-27T19:41:49.931Z,20.20
2023-01-27T19:44:17.083Z,16.08
2023-01-27T19:46:44.052Z,16.42
2023-01-27T19:49:20.086Z,17.40
2023-01-27T19:51:47.018Z,17.58
2023-01-27T19:54:13.918Z,16.27
2023-01-27T19:56:40.872Z,17.27
2023-01-27T19:59:09.656Z,15.82
2023-01-27T20:01:36.908Z,22.17
2023-01-27T20:04:04.982Z,18.00
2023-01-27T20:06:32.484Z,17.13
2023-01-27T20:09:03.648Z,17.98
2023-01-27T20:11:40.848Z,18.30
2023-01-27T20:14:16.840Z,22.33
2023-01-27T20:16:43.957Z,17.80
2023-01-27T20:19:15.013Z,19.83
2023-01-27T20:21:43.040Z,17.52
2023-01-27T20:24:17.345Z,18.00
2023-01-27T20:26:44.599Z,16.88
2023-01-27T20:29:11.819Z,20.73
2023-01-27T20:31:39.642Z,17.00
2023-01-27T20:34:07.160Z,17.98
2023-01-27T20:36:34.354Z,18.13
2023-01-27T20:39:01.595Z,18.23
2023-01-27T20:41:28.603Z,17.92
2023-01-27T20:43:57.487Z,18.10
2023-01-27T20:46:25.216Z,18.80
2023-01-27T20:48:52.210Z,20.38
2023-01-27T20:51:19.389Z,20.73
2023-01-27T20:53:46.719Z,17.65
2023-01-27T20:56:19.293Z,22.13
2023-01-27T20:58:47.256Z,19.13
2023-01-27T21:01:17.776Z,19.50
2023-01-27T21:03:47.906Z,19.90
2023-01-27T21:06:17.859Z,19.38
2023-01-27T21:08:45.048Z,20.55
2023-01-27T21:11:13.108Z,18.63
2023-01-27T21:13:40.274Z,20.15
2023-01-27T21:16:07.842Z,16.85
2023-01-27T21:18:36.688Z,21.05
2023-01-27T21:21:04.938Z,18.58
2023-01-27T21:23:33.318Z,16.10
2023-01-27T21:26:05.476Z,17.13
2023-01-27T21:28:33.893Z,18.30
2023-01-27T21:31:08.507Z,18.25
2023-01-27T21:33:36.652Z,15.73
2023-01-27T21:36:05.026Z,16.10
2023-01-27T21:38:35.109Z,15.88
2023-01-27T21:41:09.960Z,17.70
2023-01-27T21:43:55.570Z,13.60
2023-01-27T21:46:23.184Z,15.68
2023-01-27T21:48:50.433Z,15.82
2023-01-27T21:51:17.560Z,18.13
2023-01-27T21:53:44.588Z,15.73
2023-01-27T21:56:11.924Z,14.23
2023-01-27T21:58:39.188Z,18.35
2023-01-27T22:01:07.753Z,14.45
2023-01-27T22:03:35.456Z,15.93
2023-01-27T22:06:09.976Z,13.23
2023-01-27T22:08:37.477Z,15.65
2023-01-27T22:11:12.409Z,15.90
2023-01-27T22:13:39.482Z,18.42
2023-01-27T22:16:06.943Z,16.88
2023-01-27T22:18:33.797Z,15.63
2023-01-27T22:21:04.379Z,17.20
2023-01-27T22:23:31.449Z,15.35
2023-01-27T22:25:58.433Z,16.08
2023-01-27T22:28:26.590Z,14.63
2023-01-27T22:30:54.332Z,17.50
2023-01-27T22:33:21.255Z,16.58
2023-01-27T22:35:48.191Z,16.20
2023-01-27T22:38:14.972Z,18.08
2023-01-27T22:40:41.769Z,16.98
2023-01-27T22:43:10.483Z,16.15
2023-01-27T22:45:40.907Z,16.80
2023-01-27T22:48:08.871Z,16.30
2023-01-27T22:50:36.934Z,14.52
2023-01-27T22:53:05.455Z,15.10
2023-01-27T22:55:32.968Z,16.63
2023-01-27T22:57:59.964Z,16.40
2023-01-27T23:00:26.978Z,16.85
2023-01-27T23:02:54.663Z,15.50
2023-01-27T23:05:21.911Z,17.98
2023-01-27T23:07:48.712Z,17.38
2023-01-27T23:10:16.646Z,19.77
2023-01-27T23:12:43.522Z,17.80
2023-01-27T23:15:10.686Z,16.45
2023-01-27T23:17:37.764Z,19.33
2023-01-27T23:20:05.205Z,18.40
2023-01-27T23:22:32.480Z,19.52
2023-01-27T23:24:59.271Z,19.92
2023-01-27T23:27:28.533Z,20.48
2023-01-27T23:29:55.520Z,19.33
2023-01-27T23:32:22.393Z,21.02
2023-01-27T23:34:50.387Z,20.10
2023-01-27T23:37:17.496Z,19.67
2023-01-27T23:39:48.589Z,18.75
2023-01-27T23:42:17.046Z,19.48
2023-01-27T23:44:43.986Z,18.80
2023-01-27T23:47:12.149Z,20.52
2023-01-27T23:49:39.083Z,20.35
2023-01-27T23:52:06.178Z,20.48
2023-01-27T23:54:33.228Z,20.40
2023-01-27T23:57:00.662Z,21.40
2023-01-27T23:59:27.583Z,19.95
